Time;durP1;ratioP1;P1;durP2;ratioP2;P2;SDS_P1;SDS_P2;PMS_P1;PMS_P2;Temp;Humidity;BMP_temperature;BMP_pressure;BME280_temperature;BME280_humidity;BME280_pressure;Samples;Min_cycle;Max_cycle;Signal;HPM_P1;HPM_P2
2023/03/17 00:01:02;;;;;;;;;;;;;;;5.25;54.42;99258.53;5094041;28;19927;-93
2023/03/17 00:03:29;;;;;;;;;;;;;;;5.21;54.95;99252.34;5092865;28;19930;-94
2023/03/17 00:05:56;;;;;;;;;;;;;;;5.23;54.84;99236.53;5089606;28;19920;-94
2023/03/17 00:08:22;;;;;;;;;;;;;;;5.22;55.22;99254.09;5092670;28;19920;-93
2023/03/17 00:10:48;;;;;;;;;;;;;;;5.21;55.57;99247.06;5086749;28;20377;-92
2023/03/17 00:13:14;;;;;;;;;;;;;;;5.25;55.32;99240.06;5082605;28;19924;-94
2023/03/17 00:15:40;;;;;;;;;;;;;;;5.22;55.91;99248.81;5080662;28;19919;-93
2023/03/17 00:18:09;;;;;;;;;;;;;;;5.18;56.21;99244.41;5087222;28;20370;-94
2023/03/17 00:20:35;;;;;;;;;;;;;;;5.17;56.34;99240.03;5089392;28;19920;-94
2023/03/17 00:23:03;;;;;;;;;;;;;;;5.19;56.58;99234.78;5090896;28;20396;-94
2023/03/17 00:25:30;;;;;;;;;;;;;;;5.15;56.42;99231.22;5086877;28;19959;-94
2023/03/17 00:27:57;;;;;;;;;;;;;;;5.14;56.67;99242.66;5088195;28;19924;-93
2023/03/17 00:30:23;;;;;;;;;;;;;;;5.11;57.40;99234.72;5089858;28;20348;-94
2023/03/17 00:32:50;;;;;;;;;;;;;;;5.13;57.15;99235.63;5086346;28;19924;-93
2023/03/17 00:35:19;;;;;;;;;;;;;;;5.12;57.04;99239.16;5092319;28;19962;-94
2023/03/17 00:37:45;;;;;;;;;;;;;;;5.11;57.35;99235.59;5090750;28;19959;-94
2023/03/17 00:40:14;;;;;;;;;;;;;;;5.09;57.51;99232.09;5085090;28;19924;-94
2023/03/17 00:42:40;;;;;;;;;;;;;;;5.08;57.53;99234.75;5081916;28;19920;-93
2023/03/17 00:45:06;;;;;;;;;;;;;;;5.05;57.77;99225.06;5093946;28;19923;-93
2023/03/17 00:47:32;;;;;;;;;;;;;;;5.11;57.53;99232.09;5089577;28;19920;-92
2023/03/17 00:49:58;;;;;;;;;;;;;;;5.08;57.81;99224.19;5091420;28;19935;-92
2023/03/17 00:52:25;;;;;;;;;;;;;;;5.08;57.92;99226.84;5078816;28;19968;-93
2023/03/17 00:54:51;;;;;;;;;;;;;;;5.07;58.10;99225.94;5081874;28;20381;-94
2023/03/17 00:57:17;;;;;;;;;;;;;;;5.07;58.02;99228.56;5082547;28;19924;-93
2023/03/17 00:59:43;;;;;;;;;;;;;;;5.10;58.10;99217.19;5086034;28;19928;-92
2023/03/17 01:02:09;;;;;;;;;;;;;;;5.15;57.93;99218.06;5078681;28;19931;-94
2023/03/17 01:04:34;;;;;;;;;;;;;;;5.15;58.19;99212.78;5078715;28;19927;-94
2023/03/17 01:07:00;;;;;;;;;;;;;;;5.20;57.47;99208.38;5082564;28;19920;-93
2023/03/17 01:09:29;;;;;;;;;;;;;;;5.28;57.71;99203.13;5082899;28;19962;-92
2023/03/17 01:11:55;;;;;;;;;;;;;;;5.25;57.89;99196.09;5088739;28;19920;-93
2023/03/17 01:14:21;;;;;;;;;;;;;;;5.24;58.10;99194.34;5090582;28;19928;-91
2023/03/17 01:16:47;;;;;;;;;;;;;;;5.21;58.24;99193.47;5086983;28;19920;-94
2023/03/17 01:19:12;;;;;;;;;;;;;;;5.24;57.84;99188.19;5091065;28;19969;-94
2023/03/17 01:21:38;;;;;;;;;;;;;;;5.21;58.01;99188.19;5091370;28;20037;-94
2023/03/17 01:24:04;;;;;;;;;;;;;;;5.21;58.65;99180.28;5088559;28;19920;-94
2023/03/17 01:26:31;;;;;;;;;;;;;;;5.23;58.03;99175.91;5081181;28;19920;-91
2023/03/17 01:28:57;;;;;;;;;;;;;;;5.24;58.02;99180.28;5080831;28;20399;-93
2023/03/17 01:31:25;;;;;;;;;;;;;;;5.23;57.99;99178.53;5083232;28;19970;-93
2023/03/17 01:33:51;;;;;;;;;;;;;;;5.25;58.05;99167.09;5095891;28;20044;-93
2023/03/17 01:36:17;;;;;;;;;;;;;;;5.22;57.94;99168.84;5081880;28;19956;-92
2023/03/17 01:38:42;;;;;;;;;;;;;;;5.23;57.91;99173.25;5082392;28;19927;-95
2023/03/17 01:41:09;;;;;;;;;;;;;;;5.24;57.70;99172.38;5089566;28;19924;-92
2023/03/17 01:43:37;;;;;;;;;;;;;;;5.23;57.85;99168.84;5088335;28;19928;-95
2023/03/17 01:46:24;;;;;;;;;;;;;;;5.19;57.86;99175.00;5084166;28;19927;-94
2023/03/17 01:48:53;;;;;;;;;;;;;;;5.13;57.90;99170.59;5079289;28;20443;-92
2023/03/17 01:51:22;;;;;;;;;;;;;;;5.14;58.21;99172.38;5085456;28;19924;-91
2023/03/17 01:53:48;;;;;;;;;;;;;;;5.19;57.62;99168.84;5078883;28;20338;-93
2023/03/17 01:56:15;;;;;;;;;;;;;;;5.20;57.60;99170.59;5086998;28;20015;-93
2023/03/17 01:58:43;;;;;;;;;;;;;;;5.18;57.68;99161.81;5079752;28;20293;-95
2023/03/17 02:01:09;;;;;;;;;;;;;;;5.11;57.95;99163.56;5083615;28;19924;-94
2023/03/17 02:03:35;;;;;;;;;;;;;;;5.13;57.86;99170.59;5091900;28;19919;-95
2023/03/17 02:06:01;;;;;;;;;;;;;;;5.14;57.85;99160.94;5081113;28;20006;-91
2023/03/17 02:08:26;;;;;;;;;;;;;;;5.13;57.86;99165.31;5083138;28;20428;-92
2023/03/17 02:10:53;;;;;;;;;;;;;;;5.20;57.43;99162.69;5086982;28;19955;-92
2023/03/17 02:13:18;;;;;;;;;;;;;;;5.19;57.60;99153.03;5087113;28;19927;-91
2023/03/17 02:15:47;;;;;;;;;;;;;;;5.15;57.60;99163.56;5089495;28;20025;-94
2023/03/17 02:18:13;;;;;;;;;;;;;;;5.12;57.42;99167.97;5085395;28;19983;-92
2023/03/17 02:21:16;;;;;;;;;;;;;;;5.04;57.93;99165.31;5082087;28;19923;-94
2023/03/17 02:23:42;;;;;;;;;;;;;;;5.05;57.72;99159.19;5083382;28;19973;-95
2023/03/17 02:26:07;;;;;;;;;;;;;;;5.08;57.56;99153.03;5077545;28;19924;-93
2023/03/17 02:28:34;;;;;;;;;;;;;;;5.07;57.39;99151.25;5083718;28;20390;-94
2023/03/17 02:30:59;;;;;;;;;;;;;;;5.04;57.53;99141.59;5078612;28;19928;-95
2023/03/17 02:33:26;;;;;;;;;;;;;;;5.06;57.68;99146.88;5081875;28;19927;-94
2023/03/17 02:35:52;;;;;;;;;;;;;;;5.08;57.24;99140.72;5090866;28;19923;-90
2023/03/17 02:38:19;;;;;;;;;;;;;;;5.19;56.72;99155.69;5088680;28;20292;-91
2023/03/17 02:40:44;;;;;;;;;;;;;;;5.21;56.39;99144.25;5085521;28;19920;-94
2023/03/17 02:43:10;;;;;;;;;;;;;;;5.18;56.55;99146.84;5087109;28;20010;-94
2023/03/17 02:45:35;;;;;;;;;;;;;;;5.14;56.17;99153.91;5078262;28;20349;-93
2023/03/17 02:48:01;;;;;;;;;;;;;;;5.25;55.89;99153.03;5082979;28;19920;-92
2023/03/17 02:50:27;;;;;;;;;;;;;;;5.18;56.47;99153.91;5085710;28;19919;-93
2023/03/17 02:52:53;;;;;;;;;;;;;;;5.09;57.05;99158.28;5080336;28;20368;-94
2023/03/17 02:55:20;;;;;;;;;;;;;;;5.10;56.97;99160.06;5085916;28;19944;-93
2023/03/17 02:57:46;;;;;;;;;;;;;;;5.12;56.92;99162.69;5087933;28;19919;-96
2023/03/17 03:00:13;;;;;;;;;;;;;;;5.18;56.21;99157.41;5090199;28;20265;-92
2023/03/17 03:02:38;;;;;;;;;;;;;;;5.22;56.10;99158.31;5092948;28;20018;-94
2023/03/17 03:05:05;;;;;;;;;;;;;;;5.22;56.05;99156.53;5083612;28;19966;-93
2023/03/17 03:07:31;;;;;;;;;;;;;;;5.18;57.07;99160.03;5087001;28;19923;-92
2023/03/17 03:09:57;;;;;;;;;;;;;;;5.14;56.85;99161.81;5083553;28;20370;-94
2023/03/17 03:12:24;;;;;;;;;;;;;;;5.06;57.15;99167.97;5080043;28;19919;-93
2023/03/17 03:14:49;;;;;;;;;;;;;;;5.04;57.75;99162.69;5090016;28;20025;-93
2023/03/17 03:17:15;;;;;;;;;;;;;;;5.00;57.90;99160.03;5082541;28;19928;-93
2023/03/17 03:19:41;;;;;;;;;;;;;;;5.06;57.59;99167.97;5087953;28;19920;-93
2023/03/17 03:22:07;;;;;;;;;;;;;;;5.17;57.42;99160.06;5093233;28;19920;-93
2023/03/17 03:24:32;;;;;;;;;;;;;;;5.17;57.53;99162.69;5089751;28;19951;-92
2023/03/17 03:26:58;;;;;;;;;;;;;;;5.13;57.85;99156.53;5079887;28;19923;-93
2023/03/17 03:29:25;;;;;;;;;;;;;;;5.19;57.31;99167.09;5084616;28;19964;-93
2023/03/17 03:31:51;;;;;;;;;;;;;;;5.24;56.93;99160.06;5087303;28;19926;-92
2023/03/17 03:34:17;;;;;;;;;;;;;;;5.23;56.89;99162.72;5081713;28;19920;-92
2023/03/17 03:36:43;;;;;;;;;;;;;;;5.18;57.93;99169.72;5083625;28;19981;-95
2023/03/17 03:39:08;;;;;;;;;;;;;;;5.15;57.37;99163.56;5083479;28;19930;-95
2023/03/17 03:41:34;;;;;;;;;;;;;;;5.11;57.17;99168.84;5087830;28;19919;-92
2023/03/17 03:44:00;;;;;;;;;;;;;;;5.12;57.45;99163.56;5082346;28;19920;-93
2023/03/17 03:46:27;;;;;;;;;;;;;;;5.06;57.57;99174.09;5081490;28;19926;-94
2023/03/17 03:48:53;;;;;;;;;;;;;;;5.11;57.74;99167.06;5085677;28;20362;-94
2023/03/17 03:51:19;;;;;;;;;;;;;;;5.15;57.67;99166.19;5084720;28;19931;-94
2023/03/17 03:53:45;;;;;;;;;;;;;;;5.20;57.37;99167.97;5079591;28;20378;-91
2023/03/17 03:56:11;;;;;;;;;;;;;;;5.19;57.19;99160.94;5088244;28;19920;-91
2023/03/17 03:58:36;;;;;;;;;;;;;;;5.20;57.64;99174.09;5077798;28;20015;-93
2023/03/17 04:01:03;;;;;;;;;;;;;;;5.19;57.95;99169.72;5075633;28;19927;-95
2023/03/17 04:03:30;;;;;;;;;;;;;;;5.20;57.64;99170.59;5085159;28;20389;-95
2023/03/17 04:05:56;;;;;;;;;;;;;;;5.22;57.48;99160.94;5087084;28;20327;-93
2023/03/17 04:08:22;;;;;;;;;;;;;;;5.18;57.83;99167.09;5085802;28;19920;-95
2023/03/17 04:10:47;;;;;;;;;;;;;;;5.20;58.17;99170.59;5083157;28;19934;-93
2023/03/17 04:13:14;;;;;;;;;;;;;;;5.15;58.24;99168.84;5086153;28;20054;-93
2023/03/17 04:15:40;;;;;;;;;;;;;;;5.20;58.43;99176.75;5077622;28;19928;-91
2023/03/17 04:18:05;;;;;;;;;;;;;;;5.25;58.06;99174.13;5076239;28;19924;-95
2023/03/17 04:20:32;;;;;;;;;;;;;;;5.18;58.32;99181.13;5075879;28;20027;-93
2023/03/17 04:22:58;;;;;;;;;;;;;;;5.13;58.84;99186.41;5076421;28;19947;-93
2023/03/17 04:25:24;;;;;;;;;;;;;;;5.10;58.82;99191.69;5078397;28;19919;-96
2023/03/17 04:27:50;;;;;;;;;;;;;;;5.10;59.17;99189.06;5079662;28;19927;-95
2023/03/17 04:30:16;;;;;;;;;;;;;;;5.08;58.87;99182.91;5078956;28;19919;-89
2023/03/17 04:32:42;;;;;;;;;;;;;;;5.06;59.17;99181.13;5079427;28;19931;-94
2023/03/17 04:35:11;;;;;;;;;;;;;;;5.06;59.43;99184.66;5079023;28;19920;-93
2023/03/17 04:37:38;;;;;;;;;;;;;;;5.04;59.41;99188.16;5079060;28;19920;-94
2023/03/17 04:40:04;;;;;;;;;;;;;;;5.03;59.50;99182.03;5078660;28;19955;-92
2023/03/17 04:42:30;;;;;;;;;;;;;;;5.05;59.26;99179.38;5078882;28;19924;-92
2023/03/17 04:44:56;;;;;;;;;;;;;;;5.12;58.99;99181.16;5114075;28;20372;-94
2023/03/17 04:47:21;;;;;;;;;;;;;;;5.07;59.23;99182.88;5108412;28;19927;-95
2023/03/17 04:49:47;;;;;;;;;;;;;;;5.07;59.64;99182.88;5080309;28;20034;-92
2023/03/17 04:52:13;;;;;;;;;;;;;;;5.01;59.92;99182.88;5079342;28;20046;-93
2023/03/17 04:54:41;;;;;;;;;;;;;;;4.98;59.89;99186.38;5079574;28;19950;-96
2023/03/17 04:57:06;;;;;;;;;;;;;;;5.00;60.08;99184.63;5079686;28;20051;-94
2023/03/17 04:59:32;;;;;;;;;;;;;;;4.98;59.93;99186.38;5080103;28;19963;-95
2023/03/17 05:01:57;;;;;;;;;;;;;;;4.98;60.15;99189.03;5078178;28;20323;-94
2023/03/17 05:04:23;;;;;;;;;;;;;;;4.87;60.95;99196.91;5079101;28;19920;-94
2023/03/17 05:06:49;;;;;;;;;;;;;;;4.76;61.84;99197.75;5079074;28;19924;-95
2023/03/17 05:09:14;;;;;;;;;;;;;;;4.58;62.86;99199.44;5079085;28;19965;-95
2023/03/17 05:11:41;;;;;;;;;;;;;;;4.32;64.23;99202.84;5078997;28;20015;-95
2023/03/17 05:14:07;;;;;;;;;;;;;;;4.06;65.16;99209.72;5078681;28;19943;-94
2023/03/17 05:16:32;;;;;;;;;;;;;;;3.80;66.48;99214.81;5078581;28;19927;-93
2023/03/17 05:18:58;;;;;;;;;;;;;;;3.59;67.99;99213.75;5091254;28;19994;-95
2023/03/17 05:21:23;;;;;;;;;;;;;;;3.38;69.71;99205.69;5088512;28;19920;-94
2023/03/17 05:23:49;;;;;;;;;;;;;;;3.29;71.09;99212.63;5097669;28;19973;-95
2023/03/17 05:26:15;;;;;;;;;;;;;;;3.15;73.19;99216.88;5080992;28;19956;-94
2023/03/17 05:28:42;;;;;;;;;;;;;;;3.01;75.13;99224.59;5083315;28;20369;-95
2023/03/17 05:31:07;;;;;;;;;;;;;;;3.01;75.67;99232.50;5080567;28;19920;-94
2023/03/17 05:33:33;;;;;;;;;;;;;;;2.94;76.28;99235.06;5078511;28;19920;-94
2023/03/17 05:35:59;;;;;;;;;;;;;;;2.94;76.49;99232.44;5087719;28;19924;-95
2023/03/17 05:38:24;;;;;;;;;;;;;;;2.92;76.74;99234.16;5090494;28;20397;-95
2023/03/17 05:40:51;;;;;;;;;;;;;;;3.04;75.20;99235.16;5091477;28;19927;-94
2023/03/17 05:43:17;;;;;;;;;;;;;;;3.14;75.12;99224.75;5089371;28;19920;-93
2023/03/17 05:45:46;;;;;;;;;;;;;;;3.18;76.28;99232.66;5077834;28;19923;-94
2023/03/17 05:48:12;;;;;;;;;;;;;;;3.15;76.78;99234.41;5076268;28;19973;-94
2023/03/17 05:50:37;;;;;;;;;;;;;;;3.18;77.39;99234.44;5086887;28;19920;-93
2023/03/17 05:53:03;;;;;;;;;;;;;;;3.10;77.91;99239.59;5088385;28;19920;-95
2023/03/17 05:55:28;;;;;;;;;;;;;;;3.02;78.58;99236.91;5091266;28;19930;-94
2023/03/17 05:57:54;;;;;;;;;;;;;;;2.99;78.57;99243.84;5081973;28;19919;-93
2023/03/17 06:00:20;;;;;;;;;;;;;;;2.94;78.67;99240.31;5085086;28;20343;-94
2023/03/17 06:02:47;;;;;;;;;;;;;;;2.88;79.55;99241.09;5080865;28;19927;-94
2023/03/17 06:05:13;;;;;;;;;;;;;;;2.84;80.21;99234.97;5087928;28;19970;-94
2023/03/17 06:07:38;;;;;;;;;;;;;;;2.80;81.10;99234.91;5086406;28;19927;-94
2023/03/17 06:10:05;;;;;;;;;;;;;;;2.86;81.30;99240.22;5096695;28;19966;-93
2023/03/17 06:12:31;;;;;;;;;;;;;;;2.95;81.33;99244.69;5077967;28;19946;-95
2023/03/17 06:14:57;;;;;;;;;;;;;;;3.00;81.29;99240.38;5078071;28;19920;-95
2023/03/17 06:17:23;;;;;;;;;;;;;;;3.10;82.25;99247.47;5073722;28;20019;-94
2023/03/17 06:19:50;;;;;;;;;;;;;;;3.17;82.42;99248.44;5057658;28;20489;-95
2023/03/17 06:22:15;;;;;;;;;;;;;;;3.25;82.48;99242.41;5061456;28;19920;-94
2023/03/17 06:24:41;;;;;;;;;;;;;;;3.36;82.33;99236.34;5061987;28;19952;-93
2023/03/17 06:27:09;;;;;;;;;;;;;;;3.45;82.30;99239.94;5066242;28;19926;-93
2023/03/17 06:29:35;;;;;;;;;;;;;;;3.59;81.40;99245.31;5065131;28;19920;-94
2023/03/17 06:32:00;;;;;;;;;;;;;;;3.70;80.94;99246.28;5057602;28;19943;-95
2023/03/17 06:34:26;;;;;;;;;;;;;;;3.80;80.84;99244.63;5057356;28;20031;-96
2023/03/17 06:36:53;;;;;;;;;;;;;;;3.94;80.07;99246.47;5060474;28;20266;-93
2023/03/17 06:39:19;;;;;;;;;;;;;;;4.04;79.16;99243.03;5059250;28;19924;-93
2023/03/17 06:41:44;;;;;;;;;;;;;;;4.14;78.49;99243.97;5068248;28;19920;-94
2023/03/17 06:44:10;;;;;;;;;;;;;;;4.23;78.33;99239.66;5063820;28;19920;-93
2023/03/17 06:46:35;;;;;;;;;;;;;;;4.35;77.96;99244.09;5060094;28;19979;-94
2023/03/17 06:49:02;;;;;;;;;;;;;;;4.45;77.32;99245.03;5073733;28;19920;-95
2023/03/17 06:54:29;;;;;;;;;;;;;;;4.67;76.14;99243.38;5113458;27;19912;-94
2023/03/17 06:56:56;;;;;;;;;;;;;;;4.80;75.75;99246.94;5096139;28;19977;-91
2023/03/17 06:59:21;;;;;;;;;;;;;;;4.99;74.38;99251.41;5095653;28;20274;-95
2023/03/17 07:01:48;;;;;;;;;;;;;;;5.10;74.15;99247.03;5094280;28;19950;-93
2023/03/17 07:04:13;;;;;;;;;;;;;;;5.25;73.71;99245.34;5095286;28;19924;-96
2023/03/17 07:06:39;;;;;;;;;;;;;;;5.42;72.84;99240.97;5094834;28;20288;-95
2023/03/17 07:09:06;;;;;;;;;;;;;;;5.55;72.21;99237.44;5094569;28;20015;-91
2023/03/17 07:11:33;;;;;;;;;;;;;;;5.71;71.16;99238.31;5094326;28;19924;-94
2023/03/17 07:13:58;;;;;;;;;;;;;;;5.86;70.62;99240.09;5094387;28;19969;-94
2023/03/17 07:16:24;;;;;;;;;;;;;;;6.00;70.06;99237.47;5094327;28;19924;-94
2023/03/17 07:18:50;;;;;;;;;;;;;;;6.19;69.51;99243.59;5111468;28;19924;-94
2023/03/17 07:21:16;;;;;;;;;;;;;;;6.36;68.69;99239.16;5094007;28;19930;-93
2023/03/17 07:23:41;;;;;;;;;;;;;;;6.54;68.04;99232.94;5094196;28;20017;-95
2023/03/17 07:26:07;;;;;;;;;;;;;;;6.70;66.93;99223.19;5094119;28;19928;-94
2023/03/17 07:28:35;;;;;;;;;;;;;;;6.88;66.34;99227.53;5094205;28;19932;-94
2023/03/17 07:31:01;;;;;;;;;;;;;;;7.02;65.73;99222.16;5093924;28;19924;-95
2023/03/17 07:33:27;;;;;;;;;;;;;;;7.24;64.91;99214.97;5093996;28;19973;-93
2023/03/17 07:35:52;;;;;;;;;;;;;;;7.46;63.84;99215.72;5093950;28;19932;-93
2023/03/17 07:38:19;;;;;;;;;;;;;;;7.65;62.55;99216.44;5093901;28;19924;-94
2023/03/17 07:40:46;;;;;;;;;;;;;;;7.85;61.61;99220.66;5110710;28;19924;-94
2023/03/17 07:43:12;;;;;;;;;;;;;;;8.05;60.98;99217.88;5093629;28;19959;-94
2023/03/17 07:45:39;;;;;;;;;;;;;;;8.20;60.75;99223.88;5093478;28;19931;-94
2023/03/17 07:48:05;;;;;;;;;;;;;;;8.32;60.26;99225.50;5110605;28;19934;-92
2023/03/17 07:50:31;;;;;;;;;;;;;;;8.47;59.55;99215.69;5093696;28;19924;-91
2023/03/17 07:52:56;;;;;;;;;;;;;;;8.47;60.64;99218.34;5093655;28;19924;-92
2023/03/17 07:55:22;;;;;;;;;;;;;;;8.28;59.79;99217.63;5093134;28;20377;-95
2023/03/17 07:57:47;;;;;;;;;;;;;;;8.59;57.89;99212.91;5110623;28;20007;-95
2023/03/17 08:00:13;;;;;;;;;;;;;;;8.86;52.92;99210.78;5093186;28;20386;-95
2023/03/17 08:02:41;;;;;;;;;;;;;;;9.07;50.15;99206.97;5093586;28;19931;-92
2023/03/17 08:05:07;;;;;;;;;;;;;;;9.28;50.16;99204.00;5083174;28;19998;-95
2023/03/17 08:07:33;;;;;;;;;;;;;;;9.40;50.20;99197.63;5079666;28;20381;-95
2023/03/17 08:09:58;;;;;;;;;;;;;;;9.58;51.27;99204.41;5080105;28;20404;-94
2023/03/17 08:12:24;;;;;;;;;;;;;;;9.73;54.15;99209.47;5079864;28;19960;-93
2023/03/17 08:14:50;;;;;;;;;;;;;;;9.69;50.76;99198.94;5081942;28;19924;-93
2023/03/17 08:17:16;;;;;;;;;;;;;;;9.49;48.34;99205.44;5078954;28;19924;-94
2023/03/17 08:19:43;;;;;;;;;;;;;;;9.38;47.65;99199.44;5079645;28;19930;-94
2023/03/17 08:22:09;;;;;;;;;;;;;;;9.65;51.22;99191.03;5080842;28;19933;-92
2023/03/17 08:24:35;;;;;;;;;;;;;;;9.91;53.42;99200.34;5079667;28;19924;-93
2023/03/17 08:27:01;;;;;;;;;;;;;;;10.08;52.96;99202.69;5079828;28;19925;-93
2023/03/17 08:29:42;;;;;;;;;;;;;;;10.27;47.30;99196.13;5081643;28;19930;-92
2023/03/17 08:32:08;;;;;;;;;;;;;;;10.35;45.76;99185.38;5078882;28;20373;-92
2023/03/17 08:34:33;;;;;;;;;;;;;;;10.05;44.48;99184.16;5078991;28;19924;-93
2023/03/17 08:37:01;;;;;;;;;;;;;;;10.39;48.45;99184.41;5096362;28;19973;-92
2023/03/17 08:39:27;;;;;;;;;;;;;;;10.56;48.72;99185.84;5079072;28;20377;-94
2023/03/17 08:41:53;;;;;;;;;;;;;;;10.68;51.41;99191.78;5079018;28;19974;-92
2023/03/17 08:44:19;;;;;;;;;;;;;;;10.58;51.45;99190.25;5095737;28;19924;-93
2023/03/17 08:46:45;;;;;;;;;;;;;;;10.73;51.18;99186.38;5078874;28;19942;-94
2023/03/17 08:49:11;;;;;;;;;;;;;;;10.92;51.36;99173.56;5079014;28;20404;-93
2023/03/17 08:51:37;;;;;;;;;;;;;;;11.08;49.32;99179.41;5079338;28;19928;-94
2023/03/17 08:54:05;;;;;;;;;;;;;;;10.95;49.31;99183.25;5079350;28;19928;-95
2023/03/17 08:56:31;;;;;;;;;;;;;;;11.06;49.57;99178.56;5096232;28;19995;-93
2023/03/17 08:58:57;;;;;;;;;;;;;;;11.18;49.17;99178.28;5079353;28;19967;-95
2023/03/17 09:01:23;;;;;;;;;;;;;;;11.38;48.47;99184.94;5078455;28;19930;-92
2023/03/17 09:03:49;;;;;;;;;;;;;;;11.26;49.27;99179.00;5078624;28;19924;-92
2023/03/17 09:06:15;;;;;;;;;;;;;;;11.40;48.60;99178.66;5079926;28;19924;-92
2023/03/17 09:08:43;;;;;;;;;;;;;;;11.09;48.52;99170.53;5079704;28;19969;-92
2023/03/17 09:11:12;;;;;;;;;;;;;;;11.04;50.15;99177.75;5079424;28;19924;-92
2023/03/17 09:13:38;;;;;;;;;;;;;;;11.15;47.97;99173.06;5079219;28;19924;-93
2023/03/17 09:16:04;;;;;;;;;;;;;;;11.42;47.81;99181.28;5077940;28;19928;-92
2023/03/17 09:18:31;;;;;;;;;;;;;;;11.45;47.57;99182.13;5078315;28;19924;-94
2023/03/17 09:20:57;;;;;;;;;;;;;;;11.49;47.09;99169.56;5078335;28;19928;-93
2023/03/17 09:23:23;;;;;;;;;;;;;;;11.44;47.25;99169.69;5078466;28;19950;-93
2023/03/17 09:25:48;;;;;;;;;;;;;;;11.68;47.21;99172.66;5078487;28;19924;-93
2023/03/17 09:28:16;;;;;;;;;;;;;;;11.90;42.25;99165.91;5078796;28;19924;-91
2023/03/17 09:30:42;;;;;;;;;;;;;;;12.07;43.12;99165.44;5078229;28;20036;-93
2023/03/17 09:33:07;;;;;;;;;;;;;;;12.20;41.17;99173.13;5078248;28;20397;-94
2023/03/17 09:35:33;;;;;;;;;;;;;;;12.43;38.20;99165.38;5078440;28;19928;-93
2023/03/17 09:37:59;;;;;;;;;;;;;;;12.60;37.14;99159.56;5078029;28;19924;-95
2023/03/17 09:40:31;;;;;;;;;;;;;;;12.56;37.80;99157.03;5078616;28;20037;-93
2023/03/17 09:43:01;;;;;;;;;;;;;;;12.65;41.06;99160.28;5078398;28;20328;-94
2023/03/17 09:45:31;;;;;;;;;;;;;;;12.81;41.36;99150.03;5078222;28;19938;-95
2023/03/17 09:48:11;;;;;;;;;;;;;;;12.85;40.64;99149.00;5077395;28;20019;-95
2023/03/17 09:50:42;;;;;;;;;;;;;;;12.97;40.19;99147.78;5084362;28;19925;-94
2023/03/17 09:53:14;;;;;;;;;;;;;;;13.06;40.09;99146.63;5075018;28;19971;-95
2023/03/17 09:55:40;;;;;;;;;;;;;;;12.73;39.98;99144.06;5054393;28;20370;-94
2023/03/17 09:58:09;;;;;;;;;;;;;;;12.87;41.02;99147.19;5054097;28;19932;-93
2023/03/17 10:00:36;;;;;;;;;;;;;;;13.00;39.33;99144.13;5054064;28;19924;-93
2023/03/17 10:03:02;;;;;;;;;;;;;;;13.09;39.61;99146.50;5054113;28;19925;-95
2023/03/17 10:05:28;;;;;;;;;;;;;;;13.06;39.82;99142.16;5054001;28;19925;-94
2023/03/17 10:08:00;;;;;;;;;;;;;;;13.19;40.45;99147.97;5054200;28;19947;-95
2023/03/17 10:10:28;;;;;;;;;;;;;;;13.09;40.04;99146.50;5054229;28;19939;-95
2023/03/17 10:12:58;;;;;;;;;;;;;;;13.17;40.46;99141.81;5053912;28;19925;-94
2023/03/17 10:15:27;;;;;;;;;;;;;;;13.30;40.77;99142.34;5053861;28;20015;-94
2023/03/17 10:17:55;;;;;;;;;;;;;;;13.44;41.01;99145.41;5054271;28;19928;-95
2023/03/17 10:20:24;;;;;;;;;;;;;;;13.09;40.89;99141.19;5053893;28;20336;-94
2023/03/17 10:22:52;;;;;;;;;;;;;;;13.14;42.22;99136.56;5053676;28;20333;-95
2023/03/17 10:25:19;;;;;;;;;;;;;;;13.17;41.23;99139.16;5053891;28;20394;-96
2023/03/17 10:27:47;;;;;;;;;;;;;;;13.14;40.09;99137.44;5053770;28;19925;-94
2023/03/17 10:30:14;;;;;;;;;;;;;;;13.00;37.72;99136.13;5053271;28;19928;-94
2023/03/17 10:32:41;;;;;;;;;;;;;;;13.13;38.55;99126.81;5053868;28;19931;-93
2023/03/17 10:35:10;;;;;;;;;;;;;;;13.18;38.78;99137.34;5053676;28;20294;-94
2023/03/17 10:37:36;;;;;;;;;;;;;;;13.15;37.27;99127.63;5053461;28;19925;-94
2023/03/17 10:40:03;;;;;;;;;;;;;;;13.31;38.18;99130.72;5053681;28;19926;-94
2023/03/17 10:42:29;;;;;;;;;;;;;;;13.47;36.67;99125.75;5053655;28;20409;-94
2023/03/17 10:44:55;;;;;;;;;;;;;;;13.57;36.14;99124.50;5053554;28;19931;-96
2023/03/17 10:47:31;;;;;;;;;;;;;;;13.68;37.89;99126.81;5053208;28;19925;-94
2023/03/17 10:49:58;;;;;;;;;;;;;;;13.67;37.70;99125.09;5070578;28;20432;-94
2023/03/17 10:52:26;;;;;;;;;;;;;;;13.76;38.18;99119.41;5055588;28;19931;-94
2023/03/17 10:54:53;;;;;;;;;;;;;;;13.79;36.58;99121.97;5076777;28;19924;-92
2023/03/17 10:57:19;;;;;;;;;;;;;;;13.65;35.08;99121.59;5075520;28;19924;-94
2023/03/17 10:59:48;;;;;;;;;;;;;;;13.52;36.96;99113.97;5078805;28;19931;-94
2023/03/17 11:02:18;;;;;;;;;;;;;;;13.38;35.73;99115.34;5082305;28;19931;-94
2023/03/17 11:04:43;;;;;;;;;;;;;;;13.39;36.35;99117.13;5076712;28;20022;-94
2023/03/17 11:07:15;;;;;;;;;;;;;;;13.35;35.27;99111.88;5076773;28;19955;-94
2023/03/17 11:09:42;;;;;;;;;;;;;;;13.49;35.76;99113.22;5077016;28;19924;-94
2023/03/17 11:12:19;;;;;;;;;;;;;;;13.50;35.63;99113.16;5086321;28;20007;-92
2023/03/17 11:14:46;;;;;;;;;;;;;;;13.16;34.47;99110.69;5078619;28;19929;-93
2023/03/17 11:17:16;;;;;;;;;;;;;;;13.20;36.30;99112.34;5076072;28;19924;-94
2023/03/17 11:19:46;;;;;;;;;;;;;;;13.29;35.96;99101.41;5076605;28;19924;-94
2023/03/17 11:22:14;;;;;;;;;;;;;;;13.42;35.78;99104.50;5082365;28;20019;-91
2023/03/17 11:24:45;;;;;;;;;;;;;;;13.49;35.08;99097.19;5091844;28;19925;-93
2023/03/17 11:27:14;;;;;;;;;;;;;;;13.67;33.98;99098.38;5093057;28;19931;-93
2023/03/17 11:29:50;;;;;;;;;;;;;;;13.94;31.90;99089.38;5076706;28;19928;-94
2023/03/17 11:32:24;;;;;;;;;;;;;;;13.97;30.47;99091.06;5076472;28;19948;-93
2023/03/17 11:34:57;;;;;;;;;;;;;;;13.96;33.31;99089.31;5076283;28;20298;-92
2023/03/17 11:37:30;;;;;;;;;;;;;;;13.93;31.83;99084.94;5075927;28;19966;-94
2023/03/17 11:40:01;;;;;;;;;;;;;;;14.01;31.14;99078.44;5080247;28;19947;-92
2023/03/17 11:42:32;;;;;;;;;;;;;;;14.02;29.97;99069.50;5080035;28;19924;-91
2023/03/17 11:45:13;;;;;;;;;;;;;;;14.14;29.76;99069.94;5097362;28;19924;-93
2023/03/17 11:47:44;;;;;;;;;;;;;;;14.23;28.62;99057.16;5086364;28;20397;-93
2023/03/17 11:50:20;;;;;;;;;;;;;;;14.23;28.06;99051.81;5079904;28;19928;-93
2023/03/17 11:52:53;;;;;;;;;;;;;;;14.32;26.66;99051.47;5079542;28;19931;-93
2023/03/17 11:55:22;;;;;;;;;;;;;;;14.44;27.87;99045.63;5079639;28;19924;-94
2023/03/17 11:57:52;;;;;;;;;;;;;;;14.54;27.88;99052.38;5077366;28;20015;-93
2023/03/17 12:00:22;;;;;;;;;;;;;;;14.59;28.35;99041.50;5079589;28;19924;-94
2023/03/17 12:02:52;;;;;;;;;;;;;;;14.63;29.06;99039.59;5080052;28;20037;-93
2023/03/17 12:05:21;;;;;;;;;;;;;;;14.51;26.90;99035.59;5079836;28;20332;-93
2023/03/17 12:07:52;;;;;;;;;;;;;;;14.41;26.40;99040.41;5089081;28;19931;-92
2023/03/17 12:10:21;;;;;;;;;;;;;;;14.47;27.71;99032.13;5096149;28;19962;-92
2023/03/17 12:12:50;;;;;;;;;;;;;;;14.54;27.42;99027.41;5073776;28;20388;-92
2023/03/17 12:15:19;;;;;;;;;;;;;;;14.61;25.87;99028.09;5078525;28;19932;-94
2023/03/17 12:17:50;;;;;;;;;;;;;;;14.65;27.54;99027.03;5079332;28;19939;-94
2023/03/17 12:20:18;;;;;;;;;;;;;;;14.73;26.20;99030.28;5079951;28;19924;-93
2023/03/17 12:22:46;;;;;;;;;;;;;;;14.83;26.99;99014.72;5078796;28;19932;-92
2023/03/17 12:25:16;;;;;;;;;;;;;;;14.97;28.01;99012.34;5078765;28;19924;-90
2023/03/17 12:27:45;;;;;;;;;;;;;;;15.04;27.36;99016.50;5078269;28;19931;-94
2023/03/17 12:30:19;;;;;;;;;;;;;;;14.96;25.64;99005.25;5095134;28;19931;-93
2023/03/17 12:32:48;;;;;;;;;;;;;;;14.97;27.35;99001.63;5078702;28;19924;-93
2023/03/17 12:35:22;;;;;;;;;;;;;;;14.97;25.81;98999.81;5078993;28;19964;-92
2023/03/17 12:37:48;;;;;;;;;;;;;;;15.02;26.80;98993.41;5078725;28;19924;-94
2023/03/17 12:40:17;;;;;;;;;;;;;;;15.07;26.33;98994.06;5078113;28;20377;-92
2023/03/17 12:42:51;;;;;;;;;;;;;;;15.10;26.31;98996.66;5079409;28;20023;-94
2023/03/17 12:45:32;;;;;;;;;;;;;;;15.17;25.95;98988.28;5077750;28;19925;-92
2023/03/17 12:48:06;;;;;;;;;;;;;;;15.11;25.87;98991.19;5083662;28;19931;-93
2023/03/17 12:50:48;;;;;;;;;;;;;;;15.07;26.22;98988.72;5078290;28;19924;-92
2023/03/17 12:53:25;;;;;;;;;;;;;;;15.24;25.81;98980.84;5067754;28;19932;-94
2023/03/17 12:55:52;;;;;;;;;;;;;;;15.37;26.65;98979.38;5055130;28;20018;-92